sensor_id;sensor_type;location;lat;lon;timestamp;P1;durP1;ratioP1;P2;durP2;ratioP2
11709;SDS011;5911;51.036;6.972;2024-01-07T00:00:21;19.40;;;13.73;;
11709;SDS011;5911;51.036;6.972;2024-01-07T00:02:48;19.40;;;13.27;;
11709;SDS011;5911;51.036;6.972;2024-01-07T00:05:16;18.70;;;13.17;;
11709;SDS011;5911;51.036;6.972;2024-01-07T00:07:43;18.13;;;13.13;;
11709;SDS011;5911;51.036;6.972;2024-01-07T00:10:11;16.63;;;13.43;;
11709;SDS011;5911;51.036;6.972;2024-01-07T00:12:39;17.03;;;12.63;;
11709;SDS011;5911;51.036;6.972;2024-01-07T00:15:07;17.37;;;12.97;;
11709;SDS011;5911;51.036;6.972;2024-01-07T00:17:35;17.53;;;12.93;;
11709;SDS011;5911;51.036;6.972;2024-01-07T00:20:02;18.27;;;12.70;;
11709;SDS011;5911;51.036;6.972;2024-01-07T00:22:30;17.17;;;12.37;;
11709;SDS011;5911;51.036;6.972;2024-01-07T00:24:57;17.73;;;12.47;;
11709;SDS011;5911;51.036;6.972;2024-01-07T00:27:25;17.67;;;12.97;;
11709;SDS011;5911;51.036;6.972;2024-01-07T00:29:54;16.27;;;12.30;;
11709;SDS011;5911;51.036;6.972;2024-01-07T00:32:22;17.57;;;12.57;;
11709;SDS011;5911;51.036;6.972;2024-01-07T00:34:49;16.17;;;12.27;;
11709;SDS011;5911;51.036;6.972;2024-01-07T00:37:21;15.70;;;12.23;;
11709;SDS011;5911;51.036;6.972;2024-01-07T00:39:50;15.97;;;12.37;;
11709;SDS011;5911;51.036;6.972;2024-01-07T00:42:17;15.00;;;11.80;;
11709;SDS011;5911;51.036;6.972;2024-01-07T00:44:45;13.40;;;10.80;;
11709;SDS011;5911;51.036;6.972;2024-01-07T00:47:14;15.03;;;11.53;;
11709;SDS011;5911;51.036;6.972;2024-01-07T00:49:41;14.47;;;10.67;;
11709;SDS011;5911;51.036;6.972;2024-01-07T00:52:09;15.33;;;11.27;;
11709;SDS011;5911;51.036;6.972;2024-01-07T00:54:37;14.47;;;11.10;;
11709;SDS011;5911;51.036;6.972;2024-01-07T00:57:04;14.13;;;10.50;;
11709;SDS011;5911;51.036;6.972;2024-01-07T00:59:32;15.10;;;11.20;;
11709;SDS011;5911;51.036;6.972;2024-01-07T01:01:59;13.23;;;10.83;;
11709;SDS011;5911;51.036;6.972;2024-01-07T01:04:28;12.60;;;9.83;;
11709;SDS011;5911;51.036;6.972;2024-01-07T01:06:56;12.23;;;9.57;;
11709;SDS011;5911;51.036;6.972;2024-01-07T01:09:23;13.80;;;9.93;;
11709;SDS011;5911;51.036;6.972;2024-01-07T01:11:51;11.97;;;9.47;;
11709;SDS011;5911;51.036;6.972;2024-01-07T01:14:18;12.03;;;9.20;;
11709;SDS011;5911;51.036;6.972;2024-01-07T01:16:46;12.93;;;10.07;;
11709;SDS011;5911;51.036;6.972;2024-01-07T01:19:13;13.90;;;10.63;;
11709;SDS011;5911;51.036;6.972;2024-01-07T01:21:42;18.00;;;12.17;;
11709;SDS011;5911;51.036;6.972;2024-01-07T01:24:10;14.60;;;11.17;;
11709;SDS011;5911;51.036;6.972;2024-01-07T01:26:38;14.20;;;10.00;;
11709;SDS011;5911;51.036;6.972;2024-01-07T01:29:06;12.20;;;9.70;;
11709;SDS011;5911;51.036;6.972;2024-01-07T01:31:33;11.87;;;9.73;;
11709;SDS011;5911;51.036;6.972;2024-01-07T01:34:01;12.27;;;9.00;;
11709;SDS011;5911;51.036;6.972;2024-01-07T01:36:30;10.23;;;7.93;;
11709;SDS011;5911;51.036;6.972;2024-01-07T01:38:59;10.73;;;8.50;;
11709;SDS011;5911;51.036;6.972;2024-01-07T01:41:27;10.27;;;7.97;;
11709;SDS011;5911;51.036;6.972;2024-01-07T01:43:56;9.63;;;7.73;;
11709;SDS011;5911;51.036;6.972;2024-01-07T01:46:24;9.73;;;7.37;;
11709;SDS011;5911;51.036;6.972;2024-01-07T01:48:52;9.83;;;7.70;;
11709;SDS011;5911;51.036;6.972;2024-01-07T01:51:19;9.83;;;7.90;;
11709;SDS011;5911;51.036;6.972;2024-01-07T01:53:48;8.17;;;7.23;;
11709;SDS011;5911;51.036;6.972;2024-01-07T01:56:18;8.63;;;7.50;;
11709;SDS011;5911;51.036;6.972;2024-01-07T01:58:47;8.60;;;7.33;;
11709;SDS011;5911;51.036;6.972;2024-01-07T02:01:14;11.90;;;8.50;;
11709;SDS011;5911;51.036;6.972;2024-01-07T02:03:42;9.83;;;8.33;;
11709;SDS011;5911;51.036;6.972;2024-01-07T02:06:09;10.63;;;8.40;;
11709;SDS011;5911;51.036;6.972;2024-01-07T02:08:38;11.77;;;9.17;;
11709;SDS011;5911;51.036;6.972;2024-01-07T02:11:15;10.07;;;8.00;;
11709;SDS011;5911;51.036;6.972;2024-01-07T02:13:44;11.60;;;9.30;;
11709;SDS011;5911;51.036;6.972;2024-01-07T02:16:12;10.97;;;8.93;;
11709;SDS011;5911;51.036;6.972;2024-01-07T02:18:40;13.10;;;9.67;;
11709;SDS011;5911;51.036;6.972;2024-01-07T02:21:08;11.20;;;9.40;;
11709;SDS011;5911;51.036;6.972;2024-01-07T02:23:36;10.93;;;9.43;;
11709;SDS011;5911;51.036;6.972;2024-01-07T02:26:05;11.80;;;9.60;;
11709;SDS011;5911;51.036;6.972;2024-01-07T02:28:33;11.50;;;9.33;;
11709;SDS011;5911;51.036;6.972;2024-01-07T02:31:00;10.43;;;9.33;;
11709;SDS011;5911;51.036;6.972;2024-01-07T02:33:28;13.03;;;9.50;;
11709;SDS011;5911;51.036;6.972;2024-01-07T02:35:57;11.87;;;9.30;;
11709;SDS011;5911;51.036;6.972;2024-01-07T02:38:25;11.03;;;9.37;;
11709;SDS011;5911;51.036;6.972;2024-01-07T02:40:52;10.97;;;9.00;;
11709;SDS011;5911;51.036;6.972;2024-01-07T02:43:21;11.70;;;9.37;;
11709;SDS011;5911;51.036;6.972;2024-01-07T02:45:48;12.83;;;9.80;;
11709;SDS011;5911;51.036;6.972;2024-01-07T02:48:16;11.33;;;9.13;;
11709;SDS011;5911;51.036;6.972;2024-01-07T02:50:43;13.90;;;10.40;;
11709;SDS011;5911;51.036;6.972;2024-01-07T02:53:11;11.93;;;9.70;;
11709;SDS011;5911;51.036;6.972;2024-01-07T02:55:38;13.13;;;10.03;;
11709;SDS011;5911;51.036;6.972;2024-01-07T02:58:06;12.53;;;10.13;;
11709;SDS011;5911;51.036;6.972;2024-01-07T03:00:35;12.13;;;9.83;;
11709;SDS011;5911;51.036;6.972;2024-01-07T03:03:02;11.47;;;9.57;;
11709;SDS011;5911;51.036;6.972;2024-01-07T03:05:30;12.00;;;9.97;;
11709;SDS011;5911;51.036;6.972;2024-01-07T03:07:59;12.83;;;10.53;;
11709;SDS011;5911;51.036;6.972;2024-01-07T03:10:26;13.83;;;11.13;;
11709;SDS011;5911;51.036;6.972;2024-01-07T03:12:54;13.73;;;11.00;;
11709;SDS011;5911;51.036;6.972;2024-01-07T03:15:21;16.07;;;12.97;;
11709;SDS011;5911;51.036;6.972;2024-01-07T03:17:50;15.23;;;12.80;;
11709;SDS011;5911;51.036;6.972;2024-01-07T03:20:18;18.03;;;13.43;;
11709;SDS011;5911;51.036;6.972;2024-01-07T03:22:46;17.87;;;12.90;;
11709;SDS011;5911;51.036;6.972;2024-01-07T03:25:13;19.30;;;14.13;;
11709;SDS011;5911;51.036;6.972;2024-01-07T03:27:41;16.83;;;13.87;;
11709;SDS011;5911;51.036;6.972;2024-01-07T03:30:09;17.97;;;13.97;;
11709;SDS011;5911;51.036;6.972;2024-01-07T03:32:37;17.90;;;14.20;;
11709;SDS011;5911;51.036;6.972;2024-01-07T03:35:06;19.87;;;14.80;;
11709;SDS011;5911;51.036;6.972;2024-01-07T03:37:35;18.93;;;14.63;;
11709;SDS011;5911;51.036;6.972;2024-01-07T03:40:02;17.83;;;13.50;;
11709;SDS011;5911;51.036;6.972;2024-01-07T03:42:30;18.03;;;13.63;;
11709;SDS011;5911;51.036;6.972;2024-01-07T03:44:58;17.47;;;13.43;;
11709;SDS011;5911;51.036;6.972;2024-01-07T03:47:25;17.83;;;13.93;;
11709;SDS011;5911;51.036;6.972;2024-01-07T03:49:52;17.47;;;14.73;;
11709;SDS011;5911;51.036;6.972;2024-01-07T03:52:21;18.70;;;15.13;;
11709;SDS011;5911;51.036;6.972;2024-01-07T03:54:49;19.10;;;13.73;;
11709;SDS011;5911;51.036;6.972;2024-01-07T03:57:16;18.27;;;14.13;;
11709;SDS011;5911;51.036;6.972;2024-01-07T03:59:44;17.27;;;13.23;;
11709;SDS011;5911;51.036;6.972;2024-01-07T04:02:11;16.57;;;12.67;;
11709;SDS011;5911;51.036;6.972;2024-01-07T04:04:42;16.33;;;13.40;;
11709;SDS011;5911;51.036;6.972;2024-01-07T04:07:09;15.57;;;12.10;;
11709;SDS011;5911;51.036;6.972;2024-01-07T04:09:38;14.13;;;11.60;;
11709;SDS011;5911;51.036;6.972;2024-01-07T04:12:06;15.90;;;11.63;;
11709;SDS011;5911;51.036;6.972;2024-01-07T04:14:33;16.70;;;12.80;;
11709;SDS011;5911;51.036;6.972;2024-01-07T04:17:01;16.33;;;12.30;;
11709;SDS011;5911;51.036;6.972;2024-01-07T04:19:28;15.47;;;12.30;;
11709;SDS011;5911;51.036;6.972;2024-01-07T04:21:56;16.47;;;12.27;;
11709;SDS011;5911;51.036;6.972;2024-01-07T04:24:23;16.90;;;12.50;;
11709;SDS011;5911;51.036;6.972;2024-01-07T04:26:52;16.80;;;12.40;;
11709;SDS011;5911;51.036;6.972;2024-01-07T04:29:20;14.30;;;11.37;;
11709;SDS011;5911;51.036;6.972;2024-01-07T04:31:47;14.33;;;11.23;;
11709;SDS011;5911;51.036;6.972;2024-01-07T04:34:15;14.77;;;12.27;;
11709;SDS011;5911;51.036;6.972;2024-01-07T04:36:43;16.53;;;12.10;;
11709;SDS011;5911;51.036;6.972;2024-01-07T04:39:10;16.63;;;12.83;;
11709;SDS011;5911;51.036;6.972;2024-01-07T04:41:38;16.23;;;13.07;;
11709;SDS011;5911;51.036;6.972;2024-01-07T04:44:10;16.10;;;12.13;;
11709;SDS011;5911;51.036;6.972;2024-01-07T04:46:37;17.57;;;12.77;;
11709;SDS011;5911;51.036;6.972;2024-01-07T04:49:05;17.97;;;14.30;;
11709;SDS011;5911;51.036;6.972;2024-01-07T04:51:33;16.20;;;12.43;;
11709;SDS011;5911;51.036;6.972;2024-01-07T04:54:02;16.47;;;13.00;;
11709;SDS011;5911;51.036;6.972;2024-01-07T04:56:30;16.40;;;13.27;;
11709;SDS011;5911;51.036;6.972;2024-01-07T04:58:57;16.47;;;12.87;;
11709;SDS011;5911;51.036;6.972;2024-01-07T05:01:26;17.17;;;13.47;;
11709;SDS011;5911;51.036;6.972;2024-01-07T05:03:54;15.90;;;12.37;;
11709;SDS011;5911;51.036;6.972;2024-01-07T05:06:21;16.67;;;12.77;;
11709;SDS011;5911;51.036;6.972;2024-01-07T05:08:49;15.73;;;12.43;;
11709;SDS011;5911;51.036;6.972;2024-01-07T05:11:16;15.63;;;12.27;;
11709;SDS011;5911;51.036;6.972;2024-01-07T05:13:44;17.20;;;12.83;;
11709;SDS011;5911;51.036;6.972;2024-01-07T05:16:17;16.00;;;12.30;;
11709;SDS011;5911;51.036;6.972;2024-01-07T05:18:46;14.90;;;11.93;;
11709;SDS011;5911;51.036;6.972;2024-01-07T05:21:15;14.87;;;11.73;;
11709;SDS011;5911;51.036;6.972;2024-01-07T05:23:42;17.10;;;12.70;;
11709;SDS011;5911;51.036;6.972;2024-01-07T05:26:10;14.67;;;12.03;;
11709;SDS011;5911;51.036;6.972;2024-01-07T05:28:37;14.73;;;11.90;;
11709;SDS011;5911;51.036;6.972;2024-01-07T05:31:05;16.23;;;12.60;;
11709;SDS011;5911;51.036;6.972;2024-01-07T05:33:40;14.17;;;11.17;;
11709;SDS011;5911;51.036;6.972;2024-01-07T05:36:09;13.33;;;10.60;;
11709;SDS011;5911;51.036;6.972;2024-01-07T05:38:37;16.30;;;12.60;;
11709;SDS011;5911;51.036;6.972;2024-01-07T05:41:04;16.30;;;11.60;;
11709;SDS011;5911;51.036;6.972;2024-01-07T05:43:32;15.63;;;12.00;;
11709;SDS011;5911;51.036;6.972;2024-01-07T05:45:59;16.60;;;12.87;;
11709;SDS011;5911;51.036;6.972;2024-01-07T05:48:29;15.63;;;12.57;;
11709;SDS011;5911;51.036;6.972;2024-01-07T05:50:57;15.30;;;11.67;;
11709;SDS011;5911;51.036;6.972;2024-01-07T05:53:26;16.33;;;12.57;;
11709;SDS011;5911;51.036;6.972;2024-01-07T05:55:53;16.07;;;12.40;;
11709;SDS011;5911;51.036;6.972;2024-01-07T05:58:21;14.60;;;12.30;;
11709;SDS011;5911;51.036;6.972;2024-01-07T06:00:48;13.97;;;11.60;;
11709;SDS011;5911;51.036;6.972;2024-01-07T06:03:16;13.87;;;11.87;;
11709;SDS011;5911;51.036;6.972;2024-01-07T06:05:43;14.47;;;11.90;;
11709;SDS011;5911;51.036;6.972;2024-01-07T06:08:11;14.50;;;11.43;;
11709;SDS011;5911;51.036;6.972;2024-01-07T06:10:40;13.60;;;10.83;;
11709;SDS011;5911;51.036;6.972;2024-01-07T06:13:08;13.47;;;11.07;;
11709;SDS011;5911;51.036;6.972;2024-01-07T06:15:35;14.03;;;11.80;;
11709;SDS011;5911;51.036;6.972;2024-01-07T06:18:03;12.10;;;10.80;;
11709;SDS011;5911;51.036;6.972;2024-01-07T06:20:31;13.40;;;10.97;;
11709;SDS011;5911;51.036;6.972;2024-01-07T06:22:59;14.10;;;11.47;;
11709;SDS011;5911;51.036;6.972;2024-01-07T06:25:26;15.70;;;11.63;;
11709;SDS011;5911;51.036;6.972;2024-01-07T06:27:57;14.87;;;12.10;;
11709;SDS011;5911;51.036;6.972;2024-01-07T06:30:25;14.33;;;10.67;;
11709;SDS011;5911;51.036;6.972;2024-01-07T06:32:52;14.17;;;11.53;;
11709;SDS011;5911;51.036;6.972;2024-01-07T06:35:20;16.27;;;12.07;;
11709;SDS011;5911;51.036;6.972;2024-01-07T06:37:48;14.90;;;11.90;;
11709;SDS011;5911;51.036;6.972;2024-01-07T06:40:16;12.87;;;10.23;;
11709;SDS011;5911;51.036;6.972;2024-01-07T06:42:43;13.00;;;10.83;;
11709;SDS011;5911;51.036;6.972;2024-01-07T06:45:12;13.33;;;10.80;;
11709;SDS011;5911;51.036;6.972;2024-01-07T06:47:41;13.30;;;10.80;;
11709;SDS011;5911;51.036;6.972;2024-01-07T06:50:08;13.60;;;11.03;;
11709;SDS011;5911;51.036;6.972;2024-01-07T06:52:36;13.70;;;11.83;;
11709;SDS011;5911;51.036;6.972;2024-01-07T06:55:04;13.07;;;10.70;;
11709;SDS011;5911;51.036;6.972;2024-01-07T06:57:31;13.47;;;10.20;;
11709;SDS011;5911;51.036;6.972;2024-01-07T06:59:59;14.53;;;11.23;;
11709;SDS011;5911;51.036;6.972;2024-01-07T07:02:28;13.20;;;10.40;;
11709;SDS011;5911;51.036;6.972;2024-01-07T07:04:58;12.40;;;10.07;;
11709;SDS011;5911;51.036;6.972;2024-01-07T07:07:26;12.53;;;10.37;;
11709;SDS011;5911;51.036;6.972;2024-01-07T07:09:54;13.53;;;10.00;;
11709;SDS011;5911;51.036;6.972;2024-01-07T07:12:21;11.80;;;9.97;;
11709;SDS011;5911;51.036;6.972;2024-01-07T07:14:49;12.47;;;10.50;;
11709;SDS011;5911;51.036;6.972;2024-01-07T07:17:16;11.93;;;9.93;;
11709;SDS011;5911;51.036;6.972;2024-01-07T07:19:45;12.43;;;10.33;;
11709;SDS011;5911;51.036;6.972;2024-01-07T07:22:13;12.33;;;9.87;;
11709;SDS011;5911;51.036;6.972;2024-01-07T07:24:40;13.67;;;11.00;;
11709;SDS011;5911;51.036;6.972;2024-01-07T07:27:08;11.00;;;9.67;;
11709;SDS011;5911;51.036;6.972;2024-01-07T07:29:39;11.70;;;9.33;;
11709;SDS011;5911;51.036;6.972;2024-01-07T07:32:07;12.50;;;10.10;;
11709;SDS011;5911;51.036;6.972;2024-01-07T07:34:35;12.93;;;10.30;;
11709;SDS011;5911;51.036;6.972;2024-01-07T07:37:06;13.50;;;10.63;;
11709;SDS011;5911;51.036;6.972;2024-01-07T07:39:36;12.00;;;10.03;;
11709;SDS011;5911;51.036;6.972;2024-01-07T07:42:05;12.27;;;10.30;;
11709;SDS011;5911;51.036;6.972;2024-01-07T07:44:32;12.83;;;10.70;;
11709;SDS011;5911;51.036;6.972;2024-01-07T07:47:15;12.23;;;10.17;;
11709;SDS011;5911;51.036;6.972;2024-01-07T07:49:44;11.83;;;9.30;;
11709;SDS011;5911;51.036;6.972;2024-01-07T07:52:15;11.87;;;10.33;;
11709;SDS011;5911;51.036;6.972;2024-01-07T07:54:48;12.20;;;10.20;;
11709;SDS011;5911;51.036;6.972;2024-01-07T07:57:15;12.67;;;10.00;;
11709;SDS011;5911;51.036;6.972;2024-01-07T07:59:45;11.83;;;9.83;;
11709;SDS011;5911;51.036;6.972;2024-01-07T08:02:12;12.03;;;10.10;;
11709;SDS011;5911;51.036;6.972;2024-01-07T08:04:45;11.53;;;9.67;;
11709;SDS011;5911;51.036;6.972;2024-01-07T08:07:19;11.03;;;9.90;;
11709;SDS011;5911;51.036;6.972;2024-01-07T08:09:46;11.83;;;9.73;;
11709;SDS011;5911;51.036;6.972;2024-01-07T08:12:14;12.20;;;10.23;;
11709;SDS011;5911;51.036;6.972;2024-01-07T08:14:41;12.70;;;10.77;;
11709;SDS011;5911;51.036;6.972;2024-01-07T08:17:09;11.00;;;9.80;;
11709;SDS011;5911;51.036;6.972;2024-01-07T08:19:36;12.53;;;10.57;;
11709;SDS011;5911;51.036;6.972;2024-01-07T08:22:04;11.60;;;10.20;;
11709;SDS011;5911;51.036;6.972;2024-01-07T08:24:33;12.03;;;10.10;;
11709;SDS011;5911;51.036;6.972;2024-01-07T08:27:00;10.73;;;9.60;;
11709;SDS011;5911;51.036;6.972;2024-01-07T08:29:29;13.77;;;10.80;;
11709;SDS011;5911;51.036;6.972;2024-01-07T08:31:56;12.60;;;9.87;;
11709;SDS011;5911;51.036;6.972;2024-01-07T08:34:24;13.50;;;11.00;;
11709;SDS011;5911;51.036;6.972;2024-01-07T08:36:56;12.57;;;10.67;;
11709;SDS011;5911;51.036;6.972;2024-01-07T08:39:23;14.53;;;12.13;;
11709;SDS011;5911;51.036;6.972;2024-01-07T08:41:53;12.87;;;11.07;;
11709;SDS011;5911;51.036;6.972;2024-01-07T08:44:21;13.53;;;11.43;;
11709;SDS011;5911;51.036;6.972;2024-01-07T08:46:48;15.03;;;11.57;;
11709;SDS011;5911;51.036;6.972;2024-01-07T08:49:16;14.67;;;10.93;;
11709;SDS011;5911;51.036;6.972;2024-01-07T08:51:45;13.50;;;10.87;;
11709;SDS011;5911;51.036;6.972;2024-01-07T08:54:13;14.37;;;11.40;;
11709;SDS011;5911;51.036;6.972;2024-01-07T08:56:40;15.53;;;11.90;;
11709;SDS011;5911;51.036;6.972;2024-01-07T08:59:09;15.03;;;11.67;;
11709;SDS011;5911;51.036;6.972;2024-01-07T09:01:37;13.63;;;11.60;;
11709;SDS011;5911;51.036;6.972;2024-01-07T09:04:05;13.73;;;11.33;;
11709;SDS011;5911;51.036;6.972;2024-01-07T09:06:32;16.43;;;11.67;;
11709;SDS011;5911;51.036;6.972;2024-01-07T09:09:00;13.53;;;11.27;;
11709;SDS011;5911;51.036;6.972;2024-01-07T09:11:27;15.47;;;11.53;;
11709;SDS011;5911;51.036;6.972;2024-01-07T09:13:55;13.30;;;11.40;;
11709;SDS011;5911;51.036;6.972;2024-01-07T09:16:23;14.73;;;10.90;;
11709;SDS011;5911;51.036;6.972;2024-01-07T09:18:51;12.80;;;10.70;;
11709;SDS011;5911;51.036;6.972;2024-01-07T09:21:19;14.67;;;11.13;;
11709;SDS011;5911;51.036;6.972;2024-01-07T09:23:46;12.23;;;10.33;;
11709;SDS011;5911;51.036;6.972;2024-01-07T09:26:16;12.93;;;10.27;;
11709;SDS011;5911;51.036;6.972;2024-01-07T09:28:44;9.93;;;8.50;;
11709;SDS011;5911;51.036;6.972;2024-01-07T09:31:11;12.03;;;8.97;;
11709;SDS011;5911;51.036;6.972;2024-01-07T09:33:43;9.90;;;8.73;;
11709;SDS011;5911;51.036;6.972;2024-01-07T09:36:10;9.43;;;8.47;;
11709;SDS011;5911;51.036;6.972;2024-01-07T09:38:54;10.63;;;8.83;;
11709;SDS011;5911;51.036;6.972;2024-01-07T09:41:22;10.00;;;8.50;;
11709;SDS011;5911;51.036;6.972;2024-01-07T09:43:49;9.60;;;8.27;;
11709;SDS011;5911;51.036;6.972;2024-01-07T09:46:17;9.57;;;7.70;;
11709;SDS011;5911;51.036;6.972;2024-01-07T09:48:46;8.77;;;7.37;;
11709;SDS011;5911;51.036;6.972;2024-01-07T09:51:13;7.73;;;6.90;;
11709;SDS011;5911;51.036;6.972;2024-01-07T09:53:41;8.37;;;6.90;;
11709;SDS011;5911;51.036;6.972;2024-01-07T09:56:11;7.13;;;6.43;;
11709;SDS011;5911;51.036;6.972;2024-01-07T09:58:40;7.27;;;6.23;;
11709;SDS011;5911;51.036;6.972;2024-01-07T10:01:08;6.83;;;5.87;;
11709;SDS011;5911;51.036;6.972;2024-01-07T10:03:37;6.77;;;5.97;;
11709;SDS011;5911;51.036;6.972;2024-01-07T10:06:06;6.57;;;5.97;;
11709;SDS011;5911;51.036;6.972;2024-01-07T10:08:34;6.37;;;5.73;;
11709;SDS011;5911;51.036;6.972;2024-01-07T10:11:01;7.17;;;6.23;;
11709;SDS011;5911;51.036;6.972;2024-01-07T10:13:31;6.80;;;5.97;;
11709;SDS011;5911;51.036;6.972;2024-01-07T10:15:58;7.10;;;6.40;;
11709;SDS011;5911;51.036;6.972;2024-01-07T10:18:26;8.13;;;7.33;;
11709;SDS011;5911;51.036;6.972;2024-01-07T10:20:54;8.63;;;7.37;;
11709;SDS011;5911;51.036;6.972;2024-01-07T10:23:22;8.83;;;7.93;;
11709;SDS011;5911;51.036;6.972;2024-01-07T10:25:50;8.43;;;7.47;;
11709;SDS011;5911;51.036;6.972;2024-01-07T10:28:18;7.73;;;6.93;;
11709;SDS011;5911;51.036;6.972;2024-01-07T10:30:48;8.97;;;8.07;;
11709;SDS011;5911;51.036;6.972;2024-01-07T10:33:17;11.47;;;8.20;;
11709;SDS011;5911;51.036;6.972;2024-01-07T10:35:45;10.63;;;7.70;;
11709;SDS011;5911;51.036;6.972;2024-01-07T10:38:15;9.87;;;8.83;;
11709;SDS011;5911;51.036;6.972;2024-01-07T10:40:44;10.13;;;8.50;;
11709;SDS011;5911;51.036;6.972;2024-01-07T10:43:14;9.03;;;8.07;;
11709;SDS011;5911;51.036;6.972;2024-01-07T10:45:43;10.40;;;8.93;;
11709;SDS011;5911;51.036;6.972;2024-01-07T10:48:15;12.00;;;9.63;;
11709;SDS011;5911;51.036;6.972;2024-01-07T10:50:44;11.73;;;8.90;;
11709;SDS011;5911;51.036;6.972;2024-01-07T10:53:13;10.40;;;8.87;;
11709;SDS011;5911;51.036;6.972;2024-01-07T10:55:47;11.20;;;9.03;;
11709;SDS011;5911;51.036;6.972;2024-01-07T10:58:15;11.27;;;9.73;;
11709;SDS011;5911;51.036;6.972;2024-01-07T11:00:43;12.17;;;10.23;;
11709;SDS011;5911;51.036;6.972;2024-01-07T11:03:14;11.67;;;9.80;;
11709;SDS011;5911;51.036;6.972;2024-01-07T11:05:47;11.83;;;9.60;;
11709;SDS011;5911;51.036;6.972;2024-01-07T11:08:18;10.90;;;8.90;;
11709;SDS011;5911;51.036;6.972;2024-01-07T11:10:48;10.90;;;8.80;;
11709;SDS011;5911;51.036;6.972;2024-01-07T11:16:05;10.43;;;9.20;;
11709;SDS011;5911;51.036;6.972;2024-01-07T11:18:37;11.90;;;9.93;;
11709;SDS011;5911;51.036;6.972;2024-01-07T11:21:06;9.70;;;8.50;;
11709;SDS011;5911;51.036;6.972;2024-01-07T11:23:34;10.50;;;8.63;;
11709;SDS011;5911;51.036;6.972;2024-01-07T11:26:05;11.37;;;9.67;;
11709;SDS011;5911;51.036;6.972;2024-01-07T11:28:45;11.33;;;9.30;;
11709;SDS011;5911;51.036;6.972;2024-01-07T11:31:13;9.90;;;8.60;;
11709;SDS011;5911;51.036;6.972;2024-01-07T11:33:41;9.90;;;8.90;;
11709;SDS011;5911;51.036;6.972;2024-01-07T11:36:10;11.90;;;9.60;;
11709;SDS011;5911;51.036;6.972;2024-01-07T11:38:38;12.33;;;9.23;;
11709;SDS011;5911;51.036;6.972;2024-01-07T11:41:07;10.53;;;8.97;;
11709;SDS011;5911;51.036;6.972;2024-01-07T11:43:35;9.37;;;8.13;;
11709;SDS011;5911;51.036;6.972;2024-01-07T11:46:02;8.23;;;7.30;;
11709;SDS011;5911;51.036;6.972;2024-01-07T11:48:30;8.67;;;7.53;;
11709;SDS011;5911;51.036;6.972;2024-01-07T11:50:58;9.73;;;7.70;;
11709;SDS011;5911;51.036;6.972;2024-01-07T11:53:25;8.93;;;7.37;;
11709;SDS011;5911;51.036;6.972;2024-01-07T11:55:53;8.33;;;7.47;;
11709;SDS011;5911;51.036;6.972;2024-01-07T11:58:22;8.60;;;7.17;;
11709;SDS011;5911;51.036;6.972;2024-01-07T12:00:49;8.07;;;7.17;;
11709;SDS011;5911;51.036;6.972;2024-01-07T12:03:17;8.07;;;7.27;;
11709;SDS011;5911;51.036;6.972;2024-01-07T12:05:45;8.83;;;7.33;;
11709;SDS011;5911;51.036;6.972;2024-01-07T12:08:14;8.97;;;7.60;;
11709;SDS011;5911;51.036;6.972;2024-01-07T12:10:42;7.67;;;6.90;;
11709;SDS011;5911;51.036;6.972;2024-01-07T12:13:09;7.50;;;6.40;;
11709;SDS011;5911;51.036;6.972;2024-01-07T12:15:39;11.60;;;7.40;;
11709;SDS011;5911;51.036;6.972;2024-01-07T12:18:07;7.63;;;6.83;;
11709;SDS011;5911;51.036;6.972;2024-01-07T12:20:34;8.23;;;6.67;;
11709;SDS011;5911;51.036;6.972;2024-01-07T12:23:05;8.67;;;7.20;;
11709;SDS011;5911;51.036;6.972;2024-01-07T12:25:33;7.97;;;6.93;;
11709;SDS011;5911;51.036;6.972;2024-01-07T12:28:01;9.63;;;6.80;;
11709;SDS011;5911;51.036;6.972;2024-01-07T12:30:28;7.60;;;6.57;;
11709;SDS011;5911;51.036;6.972;2024-01-07T12:32:58;7.87;;;7.07;;
11709;SDS011;5911;51.036;6.972;2024-01-07T12:35:26;9.03;;;6.20;;
11709;SDS011;5911;51.036;6.972;2024-01-07T12:37:53;7.93;;;6.83;;
11709;SDS011;5911;51.036;6.972;2024-01-07T12:40:22;8.13;;;6.40;;
11709;SDS011;5911;51.036;6.972;2024-01-07T12:42:51;6.60;;;5.97;;
11709;SDS011;5911;51.036;6.972;2024-01-07T12:45:18;8.07;;;6.23;;
11709;SDS011;5911;51.036;6.972;2024-01-07T12:47:46;8.17;;;6.30;;
11709;SDS011;5911;51.036;6.972;2024-01-07T12:50:15;6.47;;;5.80;;
11709;SDS011;5911;51.036;6.972;2024-01-07T12:52:43;7.27;;;5.87;;
11709;SDS011;5911;51.036;6.972;2024-01-07T12:55:10;7.37;;;5.90;;
11709;SDS011;5911;51.036;6.972;2024-01-07T12:57:38;7.70;;;5.27;;
11709;SDS011;5911;51.036;6.972;2024-01-07T13:00:06;6.77;;;5.67;;
11709;SDS011;5911;51.036;6.972;2024-01-07T13:02:34;7.87;;;5.47;;
11709;SDS011;5911;51.036;6.972;2024-01-07T13:05:02;5.60;;;5.00;;
11709;SDS011;5911;51.036;6.972;2024-01-07T13:07:32;6.00;;;4.87;;
11709;SDS011;5911;51.036;6.972;2024-01-07T13:09:59;6.27;;;5.40;;
11709;SDS011;5911;51.036;6.972;2024-01-07T13:12:27;7.17;;;5.30;;
11709;SDS011;5911;51.036;6.972;2024-01-07T13:15:09;5.90;;;4.90;;
11709;SDS011;5911;51.036;6.972;2024-01-07T13:17:36;5.33;;;4.27;;
11709;SDS011;5911;51.036;6.972;2024-01-07T13:20:07;5.07;;;4.40;;
11709;SDS011;5911;51.036;6.972;2024-01-07T13:22:39;6.63;;;4.70;;
11709;SDS011;5911;51.036;6.972;2024-01-07T13:25:07;6.20;;;5.20;;
11709;SDS011;5911;51.036;6.972;2024-01-07T13:27:35;4.77;;;4.37;;
11709;SDS011;5911;51.036;6.972;2024-01-07T13:30:04;4.30;;;3.90;;
11709;SDS011;5911;51.036;6.972;2024-01-07T13:32:32;5.60;;;5.07;;
11709;SDS011;5911;51.036;6.972;2024-01-07T13:35:03;4.80;;;4.30;;
11709;SDS011;5911;51.036;6.972;2024-01-07T13:37:31;5.90;;;4.73;;
11709;SDS011;5911;51.036;6.972;2024-01-07T13:40:00;4.90;;;4.30;;
11709;SDS011;5911;51.036;6.972;2024-01-07T13:42:30;5.13;;;4.33;;
11709;SDS011;5911;51.036;6.972;2024-01-07T13:44:57;5.47;;;4.50;;
11709;SDS011;5911;51.036;6.972;2024-01-07T13:47:25;5.37;;;4.73;;
11709;SDS011;5911;51.036;6.972;2024-01-07T13:49:52;6.30;;;5.10;;
11709;SDS011;5911;51.036;6.972;2024-01-07T13:52:20;5.00;;;4.50;;
11709;SDS011;5911;51.036;6.972;2024-01-07T13:54:47;4.53;;;4.13;;
11709;SDS011;5911;51.036;6.972;2024-01-07T13:57:16;5.37;;;4.87;;
11709;SDS011;5911;51.036;6.972;2024-01-07T13:59:44;4.97;;;4.47;;
11709;SDS011;5911;51.036;6.972;2024-01-07T14:02:11;5.20;;;4.70;;
11709;SDS011;5911;51.036;6.972;2024-01-07T14:04:39;6.00;;;4.70;;
11709;SDS011;5911;51.036;6.972;2024-01-07T14:07:06;6.03;;;4.70;;
11709;SDS011;5911;51.036;6.972;2024-01-07T14:09:34;5.17;;;4.77;;
11709;SDS011;5911;51.036;6.972;2024-01-07T14:12:01;4.70;;;4.33;;
11709;SDS011;5911;51.036;6.972;2024-01-07T14:14:31;4.40;;;4.00;;
11709;SDS011;5911;51.036;6.972;2024-01-07T14:16:58;5.07;;;4.57;;
11709;SDS011;5911;51.036;6.972;2024-01-07T14:19:25;4.63;;;4.23;;
11709;SDS011;5911;51.036;6.972;2024-01-07T14:21:53;4.67;;;4.27;;
11709;SDS011;5911;51.036;6.972;2024-01-07T14:24:21;5.33;;;4.83;;
11709;SDS011;5911;51.036;6.972;2024-01-07T14:26:48;5.17;;;4.27;;
11709;SDS011;5911;51.036;6.972;2024-01-07T14:29:16;3.50;;;3.20;;
11709;SDS011;5911;51.036;6.972;2024-01-07T14:31:45;4.00;;;3.40;;
11709;SDS011;5911;51.036;6.972;2024-01-07T14:34:14;3.70;;;3.37;;
11709;SDS011;5911;51.036;6.972;2024-01-07T14:36:42;3.73;;;3.43;;
11709;SDS011;5911;51.036;6.972;2024-01-07T14:39:10;3.47;;;3.17;;
11709;SDS011;5911;51.036;6.972;2024-01-07T14:41:40;4.03;;;3.30;;
11709;SDS011;5911;51.036;6.972;2024-01-07T14:44:07;3.50;;;2.70;;
11709;SDS011;5911;51.036;6.972;2024-01-07T14:46:38;3.73;;;3.00;;
11709;SDS011;5911;51.036;6.972;2024-01-07T14:49:07;3.30;;;3.00;;
11709;SDS011;5911;51.036;6.972;2024-01-07T14:51:34;3.33;;;3.03;;
11709;SDS011;5911;51.036;6.972;2024-01-07T14:54:02;3.73;;;3.00;;